Time;durP1;ratioP1;P1;durP2;ratioP2;P2;SDS_P1;SDS_P2;PMS_P1;PMS_P2;Temp;Humidity;BMP_temperature;BMP_pressure;BME280_temperature;BME280_humidity;BME280_pressure;Samples;Min_cycle;Max_cycle;Signal;HPM_P1;HPM_P2
2023/08/13 00:00:44;;;;;;;;;;;;;;;;;;5017443;28;19932;-69
2023/08/13 00:03:10;;;;;;;;;;;;;;;;;;5022648;28;19936;-68
2023/08/13 00:05:36;;;;;;;;;;;;;;;;;;5014645;28;19932;-69
2023/08/13 00:08:02;;;;;;;;;;;;;;;;;;4975480;28;19925;-68
2023/08/13 00:10:28;;;;;;;;;;;;;;;;;;5010243;28;19921;-67
2023/08/13 00:12:53;;;;;;;;;;;;;;;;;;5010548;28;20473;-67
2023/08/13 00:15:19;;;;;;;;;;;;;;;;;;5011192;28;19925;-67
2023/08/13 00:17:45;;;;;;;;;;;;;;;;;;5007287;28;19925;-68
2023/08/13 00:20:11;;;;;;;;;;;;;;;;;;5001742;28;19930;-67
2023/08/13 00:22:37;;;;;;;;;;;;;;;;;;5013848;28;20566;-67
2023/08/13 00:25:03;;;;;;;;;;;;;;;;;;5008359;28;19933;-66
2023/08/13 00:27:29;;;;;;;;;;;;;;;;;;5003698;28;19926;-66
2023/08/13 00:29:55;;;;;;;;;;;;;;;;;;5018746;28;20666;-66
2023/08/13 00:32:21;;;;;;;;;;;;;;;;;;5022069;28;19925;-66
2023/08/13 00:34:47;;;;;;;;;;;;;;;;;;5019476;28;19925;-66
2023/08/13 00:37:13;;;;;;;;;;;;;;;;;;5022284;28;20230;-66
2023/08/13 00:39:39;;;;;;;;;;;;;;;;;;5016356;28;19983;-66
2023/08/13 00:42:04;;;;;;;;;;;;;;;;;;5015705;28;19929;-67
2023/08/13 00:44:30;;;;;;;;;;;;;;;;;;5022391;28;19979;-67
2023/08/13 00:46:56;;;;;;;;;;;;;;;;;;5014886;28;20620;-67
2023/08/13 00:49:23;;;;;;;;;;;;;;;;;;5021474;28;20308;-67
2023/08/13 00:51:49;;;;;;;;;;;;;;;;;;5008780;28;20414;-67
2023/08/13 00:54:15;;;;;;;;;;;;;;;;;;5022064;28;19933;-67
2023/08/13 00:56:41;;;;;;;;;;;;;;;;;;5021604;28;19925;-67
2023/08/13 00:59:07;;;;;;;;;;;;;;;;;;5020756;28;19933;-67
2023/08/13 01:01:33;;;;;;;;;;;;;;;;;;5021772;28;19971;-66
2023/08/13 01:03:59;;;;;;;;;;;;;;;;;;5020359;28;19932;-67
2023/08/13 01:06:25;;;;;;;;;;;;;;;;;;5096377;23;19923;-61
2023/08/13 01:08:51;;;;;;;;;;;;;;;;;;4994128;28;20341;-61
2023/08/13 01:11:17;;;;;;;;;;;;;;;;;;5003415;28;19976;-61
2023/08/13 01:13:43;;;;;;;;;;;;;;;;;;4999031;28;19930;-60
2023/08/13 01:16:09;;;;;;;;;;;;;;;;;;4998722;28;19933;-60
2023/08/13 01:18:35;;;;;;;;;;;;;;;;;;5004258;28;19925;-60
2023/08/13 01:21:01;;;;;;;;;;;;;;;;;;5006561;28;19979;-60
2023/08/13 01:23:27;;;;;;;;;;;;;;;;;;5005591;28;19929;-60
2023/08/13 01:25:52;;;;;;;;;;;;;;;;;;5006370;28;19929;-60
2023/08/13 01:28:18;;;;;;;;;;;;;;;;;;5008515;28;19978;-61
2023/08/13 01:30:44;;;;;;;;;;;;;;;;;;5009141;28;19925;-60
2023/08/13 01:33:10;;;;;;;;;;;;;;;;;;5006543;28;19925;-61
2023/08/13 01:35:37;;;;;;;;;;;;;;;;;;5008730;28;19926;-60
2023/08/13 01:38:02;;;;;;;;;;;;;;;;;;5005225;28;20266;-60
2023/08/13 01:40:28;;;;;;;;;;;;;;;;;;5005943;28;19947;-60
2023/08/13 01:42:54;;;;;;;;;;;;;;;;;;5007027;28;19925;-61
2023/08/13 01:45:20;;;;;;;;;;;;;;;;;;5006020;28;20482;-61
2023/08/13 01:47:46;;;;;;;;;;;;;;;;;;5005679;28;19926;-60
2023/08/13 01:50:12;;;;;;;;;;;;;;;;;;5006434;28;20012;-60
2023/08/13 01:52:38;;;;;;;;;;;;;;;;;;5005520;28;19930;-60
2023/08/13 01:55:05;;;;;;;;;;;;;;;;;;5004589;28;20306;-60
2023/08/13 01:57:31;;;;;;;;;;;;;;;;;;5006125;28;19933;-60
2023/08/13 01:59:57;;;;;;;;;;;;;;;;;;5004308;28;19925;-60
2023/08/13 02:02:22;;;;;;;;;;;;;;;;;;5006425;28;20291;-60
2023/08/13 02:04:48;;;;;;;;;;;;;;;;;;5004999;28;19926;-60
2023/08/13 02:07:14;;;;;;;;;;;;;;;;;;5005760;28;20052;-60
2023/08/13 02:09:40;;;;;;;;;;;;;;;;;;5006606;28;20294;-61
2023/08/13 02:12:06;;;;;;;;;;;;;;;;;;5005243;28;19917;-60
2023/08/13 02:14:32;;;;;;;;;;;;;;;;;;5005923;28;19926;-60
2023/08/13 02:16:58;;;;;;;;;;;;;;;;;;5004497;28;19926;-60
2023/08/13 02:19:24;;;;;;;;;;;;;;;;;;5005852;28;19931;-60
2023/08/13 02:21:50;;;;;;;;;;;;;;;;;;5005413;28;19988;-60
2023/08/13 02:24:16;;;;;;;;;;;;;;;;;;5005923;28;20020;-60
2023/08/13 02:26:42;;;;;;;;;;;;;;;;;;5004406;28;20549;-61
2023/08/13 02:29:08;;;;;;;;;;;;;;;;;;5005934;28;19964;-60
2023/08/13 02:31:34;;;;;;;;;;;;;;;;;;5004684;28;19976;-60
2023/08/13 02:34:00;;;;;;;;;;;;;;;;;;5004714;28;20375;-60
2023/08/13 02:36:26;;;;;;;;;;;;;;;;;;5005256;28;19928;-60
2023/08/13 02:38:51;;;;;;;;;;;;;;;;;;4987561;28;19972;-60
2023/08/13 02:41:17;;;;;;;;;;;;;;;;;;5004181;28;19925;-60
2023/08/13 02:43:43;;;;;;;;;;;;;;;;;;5005215;28;20556;-60
2023/08/13 02:46:09;;;;;;;;;;;;;;;;;;5010951;28;19926;-60
2023/08/13 02:48:35;;;;;;;;;;;;;;;;;;5004981;28;19972;-60
2023/08/13 02:51:01;;;;;;;;;;;;;;;;;;5004375;28;19972;-60
2023/08/13 02:53:27;;;;;;;;;;;;;;;;;;5008742;28;19929;-60
2023/08/13 02:55:53;;;;;;;;;;;;;;;;;;5010588;28;20298;-60
2023/08/13 02:58:19;;;;;;;;;;;;;;;;;;5015793;28;19969;-60
2023/08/13 03:00:45;;;;;;;;;;;;;;;;;;5003981;28;19975;-60
2023/08/13 03:03:11;;;;;;;;;;;;;;;;;;5004633;28;19972;-60
2023/08/13 03:05:36;;;;;;;;;;;;;;;;;;5004819;28;19926;-60
2023/08/13 03:08:03;;;;;;;;;;;;;;;;;;5003760;28;19971;-60
2023/08/13 03:10:29;;;;;;;;;;;;;;;;;;5004886;28;20375;-60
2023/08/13 03:12:55;;;;;;;;;;;;;;;;;;5003854;28;19922;-60
2023/08/13 03:15:21;;;;;;;;;;;;;;;;;;5004175;28;19968;-60
2023/08/13 03:17:47;;;;;;;;;;;;;;;;;;5009208;28;20039;-60
2023/08/13 03:20:13;;;;;;;;;;;;;;;;;;5006766;28;20489;-60
2023/08/13 03:22:39;;;;;;;;;;;;;;;;;;5003348;28;19933;-60
2023/08/13 03:25:05;;;;;;;;;;;;;;;;;;5004246;28;19932;-61
2023/08/13 03:27:31;;;;;;;;;;;;;;;;;;5004845;28;19929;-62
2023/08/13 03:29:57;;;;;;;;;;;;;;;;;;5003054;28;19950;-61
2023/08/13 03:32:23;;;;;;;;;;;;;;;;;;5003885;28;19929;-61
2023/08/13 03:34:49;;;;;;;;;;;;;;;;;;5004755;28;19925;-60
2023/08/13 03:37:14;;;;;;;;;;;;;;;;;;5003520;28;19980;-61
2023/08/13 03:39:40;;;;;;;;;;;;;;;;;;5003903;28;20633;-60
2023/08/13 03:42:06;;;;;;;;;;;;;;;;;;4986563;28;19925;-60
2023/08/13 03:44:32;;;;;;;;;;;;;;;;;;5002476;28;20019;-60
2023/08/13 03:46:58;;;;;;;;;;;;;;;;;;5003940;28;19990;-60
2023/08/13 03:49:24;;;;;;;;;;;;;;;;;;5004233;28;20356;-60
2023/08/13 03:51:51;;;;;;;;;;;;;;;;;;5004165;28;19925;-60
2023/08/13 03:54:17;;;;;;;;;;;;;;;;;;5003830;28;19932;-60
2023/08/13 03:56:43;;;;;;;;;;;;;;;;;;5002754;28;19925;-60
2023/08/13 03:59:09;;;;;;;;;;;;;;;;;;5004089;28;20032;-60
2023/08/13 04:01:35;;;;;;;;;;;;;;;;;;5002280;28;19922;-60
2023/08/13 04:04:01;;;;;;;;;;;;;;;;;;5003411;28;19925;-60
2023/08/13 04:06:27;;;;;;;;;;;;;;;;;;5003208;28;19925;-60
2023/08/13 04:08:53;;;;;;;;;;;;;;;;;;5003875;28;19995;-60
2023/08/13 04:11:19;;;;;;;;;;;;;;;;;;5003774;28;20038;-60
2023/08/13 04:13:45;;;;;;;;;;;;;;;;;;5003625;28;20407;-60
2023/08/13 04:16:11;;;;;;;;;;;;;;;;;;5007646;28;19932;-60
2023/08/13 04:18:37;;;;;;;;;;;;;;;;;;5002972;28;19925;-60
2023/08/13 04:21:03;;;;;;;;;;;;;;;;;;5003328;28;20043;-60
2023/08/13 04:23:29;;;;;;;;;;;;;;;;;;5003945;28;20382;-60
2023/08/13 04:25:54;;;;;;;;;;;;;;;;;;5015566;28;19925;-62
2023/08/13 04:28:20;;;;;;;;;;;;;;;;;;5009304;28;20732;-62
2023/08/13 04:30:46;;;;;;;;;;;;;;;;;;4984949;28;20379;-63
2023/08/13 04:33:12;;;;;;;;;;;;;;;;;;5002993;28;19937;-62
2023/08/13 04:35:38;;;;;;;;;;;;;;;;;;5002721;28;19933;-62
2023/08/13 04:38:04;;;;;;;;;;;;;;;;;;5003397;28;20556;-63
2023/08/13 04:40:30;;;;;;;;;;;;;;;;;;5003259;28;20031;-63
2023/08/13 04:42:56;;;;;;;;;;;;;;;;;;5003564;28;19930;-62
2023/08/13 04:45:22;;;;;;;;;;;;;;;;;;5002536;28;19925;-62
2023/08/13 04:47:48;;;;;;;;;;;;;;;;;;5002677;28;19956;-62
2023/08/13 04:50:14;;;;;;;;;;;;;;;;;;5002760;28;19926;-62
2023/08/13 04:52:40;;;;;;;;;;;;;;;;;;4985501;28;19973;-62
2023/08/13 04:55:06;;;;;;;;;;;;;;;;;;5002768;28;19940;-63
2023/08/13 04:57:31;;;;;;;;;;;;;;;;;;4985294;28;20017;-62
2023/08/13 04:59:57;;;;;;;;;;;;;;;;;;5002413;28;20012;-62
2023/08/13 05:02:23;;;;;;;;;;;;;;;;;;5003141;28;19932;-62
2023/08/13 05:04:49;;;;;;;;;;;;;;;;;;5001551;28;19925;-62
2023/08/13 05:07:15;;;;;;;;;;;;;;;;;;5003056;28;19997;-64
2023/08/13 05:09:41;;;;;;;;;;;;;;;;;;5002869;28;19965;-63
2023/08/13 05:12:07;;;;;;;;;;;;;;;;;;5003027;28;20299;-63
2023/08/13 05:14:33;;;;;;;;;;;;;;;;;;5001801;28;21089;-63
2023/08/13 05:16:59;;;;;;;;;;;;;;;;;;5006607;28;19925;-61
2023/08/13 05:19:25;;;;;;;;;;;;;;;;;;5008925;28;20367;-63
2023/08/13 05:21:51;;;;;;;;;;;;;;;;;;5002565;28;19938;-62
2023/08/13 05:24:17;;;;;;;;;;;;;;;;;;5002282;28;20007;-62
2023/08/13 05:26:42;;;;;;;;;;;;;;;;;;5002733;28;20044;-62
2023/08/13 05:29:08;;;;;;;;;;;;;;;;;;5002640;28;19929;-63
2023/08/13 05:31:35;;;;;;;;;;;;;;;;;;5009329;28;19956;-62
2023/08/13 05:34:00;;;;;;;;;;;;;;;;;;5003579;28;19933;-62
2023/08/13 05:36:26;;;;;;;;;;;;;;;;;;5001728;28;19925;-62
2023/08/13 05:38:52;;;;;;;;;;;;;;;;;;5003110;28;20012;-62
2023/08/13 05:41:18;;;;;;;;;;;;;;;;;;5003714;28;20053;-62
2023/08/13 05:43:44;;;;;;;;;;;;;;;;;;5003155;28;20398;-61
2023/08/13 05:46:10;;;;;;;;;;;;;;;;;;5001638;28;19925;-62
2023/08/13 05:48:36;;;;;;;;;;;;;;;;;;5008769;28;19931;-62
2023/08/13 05:51:02;;;;;;;;;;;;;;;;;;5005532;28;19925;-62
2023/08/13 05:53:28;;;;;;;;;;;;;;;;;;5011403;28;20291;-61
2023/08/13 05:55:54;;;;;;;;;;;;;;;;;;4985726;28;19980;-62
2023/08/13 05:58:20;;;;;;;;;;;;;;;;;;5006232;28;19965;-62
2023/08/13 06:00:45;;;;;;;;;;;;;;;;;;5005304;28;19926;-62
2023/08/13 06:03:11;;;;;;;;;;;;;;;;;;5006561;28;19936;-62
2023/08/13 06:05:37;;;;;;;;;;;;;;;;;;5006593;28;19926;-62
2023/08/13 06:08:03;;;;;;;;;;;;;;;;;;5005564;28;19933;-63
2023/08/13 06:10:29;;;;;;;;;;;;;;;;;;5008769;28;20342;-63
2023/08/13 06:12:55;;;;;;;;;;;;;;;;;;4989869;28;19958;-62
2023/08/13 06:15:21;;;;;;;;;;;;;;;;;;5005148;28;19933;-63
2023/08/13 06:17:48;;;;;;;;;;;;;;;;;;5005787;28;19933;-62
2023/08/13 06:20:15;;;;;;;;;;;;;;;;;;5006029;28;19925;-62
2023/08/13 06:22:42;;;;;;;;;;;;;;;;;;5004672;28;20413;-62
2023/08/13 06:25:08;;;;;;;;;;;;;;;;;;5002809;28;20032;-63
2023/08/13 06:27:34;;;;;;;;;;;;;;;;;;5014981;28;19926;-63
2023/08/13 06:30:00;;;;;;;;;;;;;;;;;;5004797;28;19984;-63
2023/08/13 06:32:26;;;;;;;;;;;;;;;;;;5003971;28;19925;-63
2023/08/13 06:34:52;;;;;;;;;;;;;;;;;;5017095;28;19928;-61
2023/08/13 06:37:18;;;;;;;;;;;;;;;;;;5007540;28;19929;-60
2023/08/13 06:39:44;;;;;;;;;;;;;;;;;;5005630;28;19968;-61
2023/08/13 06:42:10;;;;;;;;;;;;;;;;;;5005372;28;19960;-62
2023/08/13 06:44:36;;;;;;;;;;;;;;;;;;5004805;28;20016;-62
2023/08/13 06:47:02;;;;;;;;;;;;;;;;;;5009065;28;20373;-63
2023/08/13 06:49:28;;;;;;;;;;;;;;;;;;5004426;28;19925;-62
2023/08/13 06:51:54;;;;;;;;;;;;;;;;;;5005602;28;19932;-63
2023/08/13 06:54:20;;;;;;;;;;;;;;;;;;4987356;28;19926;-62
2023/08/13 06:56:46;;;;;;;;;;;;;;;;;;5004948;28;19933;-61
2023/08/13 06:59:12;;;;;;;;;;;;;;;;;;5002981;28;19975;-61
2023/08/13 07:01:38;;;;;;;;;;;;;;;;;;5005595;28;19933;-62
2023/08/13 07:04:06;;;;;;;;;;;;;;;;;;5005450;28;19983;-61
2023/08/13 07:06:32;;;;;;;;;;;;;;;;;;5000694;28;19925;-62
2023/08/13 07:08:58;;;;;;;;;;;;;;;;;;5001510;28;19972;-61
2023/08/13 07:11:23;;;;;;;;;;;;;;;;;;5001602;28;19949;-61
2023/08/13 07:13:51;;;;;;;;;;;;;;;;;;5001515;28;20020;-61
2023/08/13 07:16:17;;;;;;;;;;;;;;;;;;5001611;28;19925;-61
2023/08/13 07:18:42;;;;;;;;;;;;;;;;;;5001640;28;19987;-62
2023/08/13 07:21:08;;;;;;;;;;;;;;;;;;5002034;28;20598;-61
2023/08/13 07:23:34;;;;;;;;;;;;;;;;;;5002287;28;20276;-61
2023/08/13 07:26:00;;;;;;;;;;;;;;;;;;5004443;28;19932;-61
2023/08/13 07:28:26;;;;;;;;;;;;;;;;;;5002458;28;19952;-61
2023/08/13 07:30:52;;;;;;;;;;;;;;;;;;4999559;28;19963;-61
2023/08/13 07:33:18;;;;;;;;;;;;;;;;;;5003064;28;19926;-61
2023/08/13 07:35:44;;;;;;;;;;;;;;;;;;5000404;28;19987;-61
2023/08/13 07:38:10;;;;;;;;;;;;;;;;;;5000257;28;19933;-61
2023/08/13 07:40:37;;;;;;;;;;;;;;;;;;5001840;28;20350;-61
2023/08/13 07:43:03;;;;;;;;;;;;;;;;;;4999776;28;19929;-61
2023/08/13 07:45:29;;;;;;;;;;;;;;;;;;4998342;28;19932;-61
2023/08/13 07:47:56;;;;;;;;;;;;;;;;;;5001201;28;19926;-61
2023/08/13 07:50:22;;;;;;;;;;;;;;;;;;5005527;28;19925;-60
2023/08/13 07:52:48;;;;;;;;;;;;;;;;;;5004158;28;19932;-61
2023/08/13 07:55:15;;;;;;;;;;;;;;;;;;4981947;28;21811;-61
2023/08/13 07:57:42;;;;;;;;;;;;;;;;;;5001443;28;19929;-60
2023/08/13 08:00:10;;;;;;;;;;;;;;;;;;4998573;28;19926;-63
2023/08/13 08:02:36;;;;;;;;;;;;;;;;;;5003355;28;20410;-61
2023/08/13 08:05:05;;;;;;;;;;;;;;;;;;4998866;28;19926;-60
2023/08/13 08:07:31;;;;;;;;;;;;;;;;;;4999759;28;19929;-60
2023/08/13 08:09:57;;;;;;;;;;;;;;;;;;4997874;28;19936;-60
2023/08/13 08:12:23;;;;;;;;;;;;;;;;;;5000900;28;19933;-61
2023/08/13 08:14:49;;;;;;;;;;;;;;;;;;5001732;28;19933;-61
2023/08/13 08:17:15;;;;;;;;;;;;;;;;;;5000059;28;19933;-60
2023/08/13 08:19:41;;;;;;;;;;;;;;;;;;5001429;28;20043;-61
2023/08/13 08:22:07;;;;;;;;;;;;;;;;;;5002377;28;20016;-62
2023/08/13 08:24:33;;;;;;;;;;;;;;;;;;5000921;28;19929;-63
2023/08/13 08:26:59;;;;;;;;;;;;;;;;;;4999028;28;19926;-62
2023/08/13 08:29:25;;;;;;;;;;;;;;;;;;5000117;28;19925;-62
2023/08/13 08:31:51;;;;;;;;;;;;;;;;;;4996979;28;19925;-64
2023/08/13 08:34:17;;;;;;;;;;;;;;;;;;4982682;28;19926;-62
2023/08/13 08:36:42;;;;;;;;;;;;;;;;;;4999786;28;19929;-62
2023/08/13 08:39:08;;;;;;;;;;;;;;;;;;5000156;28;20450;-62
2023/08/13 08:41:34;;;;;;;;;;;;;;;;;;5000655;28;20339;-62
2023/08/13 08:44:00;;;;;;;;;;;;;;;;;;5003321;28;19953;-62
2023/08/13 08:46:27;;;;;;;;;;;;;;;;;;5000005;28;20394;-62
2023/08/13 08:48:53;;;;;;;;;;;;;;;;;;5000389;28;19933;-63
2023/08/13 08:51:19;;;;;;;;;;;;;;;;;;4999137;28;19999;-62
2023/08/13 08:53:45;;;;;;;;;;;;;;;;;;4998505;28;20673;-62
2023/08/13 08:56:11;;;;;;;;;;;;;;;;;;4997618;28;19925;-62
2023/08/13 08:58:37;;;;;;;;;;;;;;;;;;5003365;28;19925;-62
2023/08/13 09:01:03;;;;;;;;;;;;;;;;;;4982523;28;19996;-63
2023/08/13 09:03:28;;;;;;;;;;;;;;;;;;4999524;28;19934;-62
2023/08/13 09:05:54;;;;;;;;;;;;;;;;;;4999862;28;20450;-64
2023/08/13 09:08:20;;;;;;;;;;;;;;;;;;5001415;28;19925;-64
2023/08/13 09:10:46;;;;;;;;;;;;;;;;;;4999976;28;19933;-63
2023/08/13 09:13:12;;;;;;;;;;;;;;;;;;5000213;28;19934;-63
2023/08/13 09:15:38;;;;;;;;;;;;;;;;;;4999856;28;19925;-63
2023/08/13 09:18:05;;;;;;;;;;;;;;;;;;5000060;28;19926;-64
2023/08/13 09:20:31;;;;;;;;;;;;;;;;;;4983453;28;20012;-62
2023/08/13 09:22:57;;;;;;;;;;;;;;;;;;5002497;28;20009;-63
2023/08/13 09:25:22;;;;;;;;;;;;;;;;;;5005350;28;20016;-63
2023/08/13 09:27:48;;;;;;;;;;;;;;;;;;5003294;28;19965;-64
2023/08/13 09:30:15;;;;;;;;;;;;;;;;;;5003921;28;19930;-61
2023/08/13 09:32:41;;;;;;;;;;;;;;;;;;5000565;28;19979;-63
2023/08/13 09:35:07;;;;;;;;;;;;;;;;;;5006056;28;19933;-62
2023/08/13 09:37:33;;;;;;;;;;;;;;;;;;5003161;28;19945;-62
2023/08/13 09:39:59;;;;;;;;;;;;;;;;;;5002928;28;19930;-63
2023/08/13 09:42:25;;;;;;;;;;;;;;;;;;5003028;28;20450;-62
2023/08/13 09:44:56;;;;;;;;;;;;;;;;;;5002909;28;19937;-62
2023/08/13 09:47:22;;;;;;;;;;;;;;;;;;5004869;28;19934;-63
2023/08/13 09:49:48;;;;;;;;;;;;;;;;;;5002680;28;20388;-64
2023/08/13 09:52:14;;;;;;;;;;;;;;;;;;5003943;28;19941;-63
2023/08/13 09:54:39;;;;;;;;;;;;;;;;;;4999524;28;19930;-64
2023/08/13 09:57:05;;;;;;;;;;;;;;;;;;5007060;28;19921;-61
2023/08/13 09:59:31;;;;;;;;;;;;;;;;;;5004756;28;19929;-63
2023/08/13 10:01:57;;;;;;;;;;;;;;;;;;4997873;28;20600;-61
2023/08/13 10:04:23;;;;;;;;;;;;;;;;;;5010362;28;19972;-61
2023/08/13 10:06:50;;;;;;;;;;;;;;;;;;5004168;28;19979;-61
2023/08/13 10:09:16;;;;;;;;;;;;;;;;;;5017173;28;19936;-61
2023/08/13 10:11:42;;;;;;;;;;;;;;;;;;5017028;28;19929;-62
2023/08/13 10:14:08;;;;;;;;;;;;;;;;;;5003024;28;19935;-61
2023/08/13 10:16:34;;;;;;;;;;;;;;;;;;5016204;28;19944;-61
2023/08/13 10:19:00;;;;;;;;;;;;;;;;;;5010562;28;20002;-61
2023/08/13 10:21:25;;;;;;;;;;;;;;;;;;5005828;28;20287;-61
2023/08/13 10:23:51;;;;;;;;;;;;;;;;;;5003862;28;19948;-61
2023/08/13 10:26:17;;;;;;;;;;;;;;;;;;5005054;28;19933;-62
2023/08/13 10:28:43;;;;;;;;;;;;;;;;;;5001254;28;19933;-61
2023/08/13 10:31:09;;;;;;;;;;;;;;;;;;5003370;28;19929;-61
2023/08/13 10:33:35;;;;;;;;;;;;;;;;;;5000170;28;20418;-61
2023/08/13 10:36:01;;;;;;;;;;;;;;;;;;4998426;28;20036;-61
2023/08/13 10:38:27;;;;;;;;;;;;;;;;;;5011124;28;19929;-61
2023/08/13 10:40:53;;;;;;;;;;;;;;;;;;5003241;28;19935;-61
2023/08/13 10:43:18;;;;;;;;;;;;;;;;;;5002683;28;20054;-62
2023/08/13 10:45:44;;;;;;;;;;;;;;;;;;5013879;28;20613;-61
2023/08/13 10:48:10;;;;;;;;;;;;;;;;;;5013271;28;19932;-61
2023/08/13 10:50:36;;;;;;;;;;;;;;;;;;5002536;28;19935;-61
2023/08/13 10:53:02;;;;;;;;;;;;;;;;;;5002642;28;19957;-61
2023/08/13 10:55:28;;;;;;;;;;;;;;;;;;5002543;28;20379;-61
2023/08/13 10:57:54;;;;;;;;;;;;;;;;;;5004637;28;19929;-61
2023/08/13 11:00:20;;;;;;;;;;;;;;;;;;5002167;28;20670;-61
2023/08/13 11:02:46;;;;;;;;;;;;;;;;;;5002362;28;19930;-61
2023/08/13 11:05:12;;;;;;;;;;;;;;;;;;5002217;28;19992;-62
2023/08/13 11:07:38;;;;;;;;;;;;;;;;;;5003043;28;19926;-61
2023/08/13 11:10:04;;;;;;;;;;;;;;;;;;5005101;28;19925;-61
2023/08/13 11:12:30;;;;;;;;;;;;;;;;;;5002717;28;19988;-61
2023/08/13 11:14:56;;;;;;;;;;;;;;;;;;5000439;28;19929;-61
2023/08/13 11:17:22;;;;;;;;;;;;;;;;;;5008487;28;19968;-61
2023/08/13 11:19:48;;;;;;;;;;;;;;;;;;5003211;28;20369;-61
2023/08/13 11:22:14;;;;;;;;;;;;;;;;;;5009730;28;19984;-61
2023/08/13 11:24:40;;;;;;;;;;;;;;;;;;5002266;28;19933;-62
2023/08/13 11:27:06;;;;;;;;;;;;;;;;;;5003715;28;19937;-61
2023/08/13 11:29:32;;;;;;;;;;;;;;;;;;5000050;28;19972;-61
2023/08/13 11:31:58;;;;;;;;;;;;;;;;;;5001658;28;19930;-61
2023/08/13 11:34:24;;;;;;;;;;;;;;;;;;5002443;28;20019;-63
2023/08/13 11:36:50;;;;;;;;;;;;;;;;;;4996934;28;19973;-62
2023/08/13 11:39:17;;;;;;;;;;;;;;;;;;5005357;28;19926;-62
2023/08/13 11:41:43;;;;;;;;;;;;;;;;;;5001850;28;19947;-62
2023/08/13 11:44:12;;;;;;;;;;;;;;;;;;5002043;28;20562;-62
2023/08/13 11:46:38;;;;;;;;;;;;;;;;;;5009819;28;20379;-63
2023/08/13 11:49:04;;;;;;;;;;;;;;;;;;5001739;28;19933;-63
2023/08/13 11:51:29;;;;;;;;;;;;;;;;;;5001333;28;19944;-62
2023/08/13 11:53:55;;;;;;;;;;;;;;;;;;5004844;28;19937;-62
2023/08/13 11:56:21;;;;;;;;;;;;;;;;;;5005432;28;19933;-63
2023/08/13 11:58:48;;;;;;;;;;;;;;;;;;5003717;28;19929;-63
2023/08/13 12:01:14;;;;;;;;;;;;;;;;;;5005190;28;19928;-64
2023/08/13 12:03:40;;;;;;;;;;;;;;;;;;5006036;28;20399;-63
2023/08/13 12:06:06;;;;;;;;;;;;;;;;;;5007754;28;19937;-63
2023/08/13 12:08:32;;;;;;;;;;;;;;;;;;5001140;28;19929;-63
2023/08/13 12:10:58;;;;;;;;;;;;;;;;;;5001757;28;19940;-63
2023/08/13 12:13:24;;;;;;;;;;;;;;;;;;5001107;28;19952;-63
2023/08/13 12:15:50;;;;;;;;;;;;;;;;;;5001938;28;19932;-63
2023/08/13 12:18:16;;;;;;;;;;;;;;;;;;5001228;28;19929;-63
2023/08/13 12:20:42;;;;;;;;;;;;;;;;;;5001542;28;19926;-63
2023/08/13 12:23:08;;;;;;;;;;;;;;;;;;5006982;28;19925;-64
2023/08/13 12:25:34;;;;;;;;;;;;;;;;;;5017148;28;19929;-63
2023/08/13 12:28:00;;;;;;;;;;;;;;;;;;5008785;28;19937;-63
2023/08/13 12:30:26;;;;;;;;;;;;;;;;;;5015203;28;19925;-63
2023/08/13 12:32:52;;;;;;;;;;;;;;;;;;5020460;28;20405;-64
2023/08/13 12:35:18;;;;;;;;;;;;;;;;;;4994973;28;19932;-63
2023/08/13 12:37:44;;;;;;;;;;;;;;;;;;5015447;28;19929;-62
2023/08/13 12:40:10;;;;;;;;;;;;;;;;;;5014843;28;19940;-62
2023/08/13 12:42:36;;;;;;;;;;;;;;;;;;5002362;28;19925;-62
2023/08/13 12:45:03;;;;;;;;;;;;;;;;;;5003742;28;19926;-62
2023/08/13 12:47:29;;;;;;;;;;;;;;;;;;5000041;28;19949;-62
2023/08/13 12:49:55;;;;;;;;;;;;;;;;;;5000112;28;19926;-62
2023/08/13 12:52:21;;;;;;;;;;;;;;;;;;4986613;28;19991;-63
2023/08/13 12:54:47;;;;;;;;;;;;;;;;;;5000943;28;19933;-63
2023/08/13 12:57:13;;;;;;;;;;;;;;;;;;5004052;28;19956;-63
2023/08/13 12:59:39;;;;;;;;;;;;;;;;;;5004204;28;19941;-63
2023/08/13 13:02:05;;;;;;;;;;;;;;;;;;5004774;28;19929;-63
2023/08/13 13:04:31;;;;;;;;;;;;;;;;;;5008331;28;19930;-63
2023/08/13 13:06:57;;;;;;;;;;;;;;;;;;5003966;28;19937;-63
2023/08/13 13:09:23;;;;;;;;;;;;;;;;;;5008369;28;20630;-64
2023/08/13 13:11:49;;;;;;;;;;;;;;;;;;5004217;28;19932;-64
2023/08/13 13:14:15;;;;;;;;;;;;;;;;;;5004725;28;20009;-65
2023/08/13 13:16:41;;;;;;;;;;;;;;;;;;5004374;28;19933;-65
2023/08/13 13:19:07;;;;;;;;;;;;;;;;;;5008498;28;20285;-66
2023/08/13 13:21:33;;;;;;;;;;;;;;;;;;5013520;28;19998;-64
2023/08/13 13:23:59;;;;;;;;;;;;;;;;;;5004980;28;19987;-63
2023/08/13 13:26:25;;;;;;;;;;;;;;;;;;5016826;28;20454;-65
2023/08/13 13:28:50;;;;;;;;;;;;;;;;;;5013431;28;19933;-64
2023/08/13 13:31:16;;;;;;;;;;;;;;;;;;5013315;28;20300;-64
2023/08/13 13:33:42;;;;;;;;;;;;;;;;;;5014156;28;20449;-64
2023/08/13 13:36:08;;;;;;;;;;;;;;;;;;5005351;28;19925;-66
2023/08/13 13:38:34;;;;;;;;;;;;;;;;;;5009224;28;20028;-65
2023/08/13 13:41:00;;;;;;;;;;;;;;;;;;5017238;28;19930;-64
2023/08/13 13:43:26;;;;;;;;;;;;;;;;;;5013766;28;19948;-64
2023/08/13 13:45:52;;;;;;;;;;;;;;;;;;5015756;28;20020;-63
2023/08/13 13:48:18;;;;;;;;;;;;;;;;;;4989490;28;19935;-63
2023/08/13 13:50:44;;;;;;;;;;;;;;;;;;5014187;28;19935;-65
2023/08/13 13:53:10;;;;;;;;;;;;;;;;;;5001021;28;19933;-65
2023/08/13 13:55:36;;;;;;;;;;;;;;;;;;5000096;28;19929;-66
2023/08/13 13:58:03;;;;;;;;;;;;;;;;;;5003133;28;20494;-65
2023/08/13 14:00:28;;;;;;;;;;;;;;;;;;5004995;28;19933;-65
2023/08/13 14:02:54;;;;;;;;;;;;;;;;;;5015445;28;20020;-65
2023/08/13 14:05:20;;;;;;;;;;;;;;;;;;5005548;28;20024;-65
2023/08/13 14:07:46;;;;;;;;;;;;;;;;;;5006199;28;20016;-65
2023/08/13 14:10:12;;;;;;;;;;;;;;;;;;5003246;28;19925;-65
2023/08/13 14:12:38;;;;;;;;;;;;;;;;;;5014338;28;20390;-65
2023/08/13 14:15:04;;;;;;;;;;;;;;;;;;5020592;28;19929;-65
2023/08/13 14:17:30;;;;;;;;;;;;;;;;;;5005482;28;19944;-65
2023/08/13 14:19:56;;;;;;;;;;;;;;;;;;5005997;28;19933;-65
2023/08/13 14:22:22;;;;;;;;;;;;;;;;;;4999311;28;19930;-65
2023/08/13 14:24:48;;;;;;;;;;;;;;;;;;5001726;28;19937;-64
2023/08/13 14:27:14;;;;;;;;;;;;;;;;;;5001916;28;20028;-64
2023/08/13 14:29:40;;;;;;;;;;;;;;;;;;5000544;28;20008;-64
2023/08/13 14:32:05;;;;;;;;;;;;;;;;;;5001321;28;20387;-64
2023/08/13 14:34:31;;;;;;;;;;;;;;;;;;5001744;28;19956;-65
2023/08/13 14:36:57;;;;;;;;;;;;;;;;;;5002983;28;19929;-65
2023/08/13 14:39:23;;;;;;;;;;;;;;;;;;5002690;28;19940;-64
2023/08/13 14:41:49;;;;;;;;;;;;;;;;;;5002632;28;20544;-63
2023/08/13 14:44:15;;;;;;;;;;;;;;;;;;5003474;28;19980;-63
2023/08/13 14:46:43;;;;;;;;;;;;;;;;;;5011048;28;20008;-64
2023/08/13 14:49:09;;;;;;;;;;;;;;;;;;5018220;28;20294;-65
2023/08/13 14:51:35;;;;;;;;;;;;;;;;;;5001967;28;19921;-65
2023/08/13 14:54:01;;;;;;;;;;;;;;;;;;4981704;28;19933;-64
2023/08/13 14:56:27;;;;;;;;;;;;;;;;;;5003484;28;19932;-64
2023/08/13 14:58:53;;;;;;;;;;;;;;;;;;5005757;28;19929;-64
2023/08/13 15:01:19;;;;;;;;;;;;;;;;;;5002772;28;19952;-63
2023/08/13 15:03:45;;;;;;;;;;;;;;;;;;5009478;28;19979;-63
2023/08/13 15:06:11;;;;;;;;;;;;;;;;;;5004722;28;19933;-63
2023/08/13 15:08:37;;;;;;;;;;;;;;;;;;5005194;28;19926;-63
2023/08/13 15:11:03;;;;;;;;;;;;;;;;;;5009245;28;20040;-63
2023/08/13 15:13:29;;;;;;;;;;;;;;;;;;5007846;28;19925;-64
2023/08/13 15:15:55;;;;;;;;;;;;;;;;;;5003338;28;20000;-64
2023/08/13 15:18:21;;;;;;;;;;;;;;;;;;5009302;28;20023;-64
2023/08/13 15:20:47;;;;;;;;;;;;;;;;;;5011511;28;20020;-64
2023/08/13 15:23:13;;;;;;;;;;;;;;;;;;5009215;28;20645;-64
2023/08/13 15:25:38;;;;;;;;;;;;;;;;;;5002783;28;19925;-64
2023/08/13 15:28:04;;;;;;;;;;;;;;;;;;5009680;28;20617;-64
2023/08/13 15:30:30;;;;;;;;;;;;;;;;;;5017220;28;19983;-64
2023/08/13 15:32:56;;;;;;;;;;;;;;;;;;5012214;28;19965;-64
2023/08/13 15:35:22;;;;;;;;;;;;;;;;;;5004690;28;19925;-64
2023/08/13 15:37:48;;;;;;;;;;;;;;;;;;5013826;28;19925;-63
2023/08/13 15:40:22;;;;;;;;;;;;;;;;;;5083876;27;20428;-63
2023/08/13 15:42:48;;;;;;;;;;;;;;;;;;5079642;28;19924;-63
2023/08/13 15:45:14;;;;;;;;;;;;;;;;;;5079536;28;19929;-63
2023/08/13 15:47:40;;;;;;;;;;;;;;;;;;5080458;28;19972;-63
2023/08/13 15:50:06;;;;;;;;;;;;;;;;;;5080103;28;19929;-63
2023/08/13 15:52:32;;;;;;;;;;;;;;;;;;5080021;28;19925;-62
2023/08/13 15:54:58;;;;;;;;;;;;;;;;;;5079497;28;19920;-62
2023/08/13 15:57:24;;;;;;;;;;;;;;;;;;5078749;28;20328;-62
2023/08/13 15:59:50;;;;;;;;;;;;;;;;;;5079497;28;19924;-63
2023/08/13 16:02:16;;;;;;;;;;;;;;;;;;5079653;28;20032;-63
2023/08/13 16:04:42;;;;;;;;;;;;;;;;;;5080142;28;20003;-63
2023/08/13 16:07:08;;;;;;;;;;;;;;;;;;5079696;28;19955;-62
2023/08/13 16:09:34;;;;;;;;;;;;;;;;;;5078773;28;19928;-62
2023/08/13 16:12:00;;;;;;;;;;;;;;;;;;5079387;28;19946;-62
2023/08/13 16:14:26;;;;;;;;;;;;;;;;;;5078294;28;19950;-62
2023/08/13 16:16:52;;;;;;;;;;;;;;;;;;5079623;28;20557;-62
2023/08/13 16:19:17;;;;;;;;;;;;;;;;;;5079390;28;20463;-62
2023/08/13 16:21:43;;;;;;;;;;;;;;;;;;5079535;28;20073;-63
2023/08/13 16:24:09;;;;;;;;;;;;;;;;;;5079697;28;20007;-62
2023/08/13 16:26:35;;;;;;;;;;;;;;;;;;5079808;28;19977;-63
2023/08/13 16:29:01;;;;;;;;;;;;;;;;;;5077913;28;19974;-63
2023/08/13 16:31:27;;;;;;;;;;;;;;;;;;5079364;28;19931;-63
2023/08/13 16:33:53;;;;;;;;;;;;;;;;;;5079216;28;19928;-64
2023/08/13 16:36:19;;;;;;;;;;;;;;;;;;5079926;28;19932;-63